KBML

Berlin Regional Airport

Berlin, New Hampshire, USA
METAR KBML 210652Z AUTO 00000KT 10SM CLR 04/03 A3007 RMK AO2 SLP187 T00390033
Observed Flight Rules
May-21 @ 06:52 UTC (21 minutes ago) Visual Flight Rules
Visibility Clouds
10 miles
  • Clear skies
Temperatures Readings
Current 4°C / 39°F
Dewpoint 3°C / 37°F
Humidity 93%
Altimeter 30.07" Hg
Pressure 1018.7 hPa
Elevation 345
METAR KBML 210652Z AUTO 00000KT 10SM CLR 04/03 A3007 RMK AO2 SLP187 T00390033
Observed Flight Rules
May-21 @ 06:52 UTC
(21 minutes ago)
VFR
Clouds
  • Clear skies
Temperature Dewpoint
4°C / 39°F 3°C / 37°F
Humidity Altimeter Pressure
93% 30.07" Hg 1018.7 hPa